sensor_id;sensor_type;location;lat;lon;timestamp;pressure;altitude;pressure_sealevel;temperature;humidity
38630;BME280;24384;51.988;4.644;2023-04-05T00:02:06;102616.25;;;5.15;69.47
38630;BME280;24384;51.988;4.644;2023-04-05T00:04:34;102610.84;;;5.06;69.43
38630;BME280;24384;51.988;4.644;2023-04-05T00:07:00;102614.47;;;5.13;69.39
38630;BME280;24384;51.988;4.644;2023-04-05T00:09:26;102611.69;;;5.04;69.43
38630;BME280;24384;51.988;4.644;2023-04-05T00:11:52;102621.09;;;4.94;69.26
38630;BME280;24384;51.988;4.644;2023-04-05T00:14:17;102606.56;;;5.08;68.93
38630;BME280;24384;51.988;4.644;2023-04-05T00:16:43;102616.13;;;5.09;68.64
38630;BME280;24384;51.988;4.644;2023-04-05T00:19:08;102618.38;;;4.89;69.26
38630;BME280;24384;51.988;4.644;2023-04-05T00:21:36;102615.94;;;4.98;68.48
38630;BME280;24384;51.988;4.644;2023-04-05T00:24:03;102610.75;;;5.01;68.86
38630;BME280;24384;51.988;4.644;2023-04-05T00:26:29;102605.47;;;4.98;69.19
38630;BME280;24384;51.988;4.644;2023-04-05T00:28:54;102608.19;;;5.03;68.58
38630;BME280;24384;51.988;4.644;2023-04-05T00:31:19;102605.75;;;5.14;67.53
38630;BME280;24384;51.988;4.644;2023-04-05T00:33:45;102602.47;;;5.24;67.10
38630;BME280;24384;51.988;4.644;2023-04-05T00:36:13;102604.59;;;4.96;68.75
38630;BME280;24384;51.988;4.644;2023-04-05T00:38:39;102602.75;;;4.92;69.21
38630;BME280;24384;51.988;4.644;2023-04-05T00:41:05;102603.38;;;4.77;69.08
38630;BME280;24384;51.988;4.644;2023-04-05T00:43:30;102592.81;;;4.73;69.97
38630;BME280;24384;51.988;4.644;2023-04-05T00:45:56;102593.66;;;4.72;70.00
38630;BME280;24384;51.988;4.644;2023-04-05T00:48:21;102593.53;;;4.65;69.74
38630;BME280;24384;51.988;4.644;2023-04-05T00:50:47;102588.50;;;4.75;69.61
38630;BME280;24384;51.988;4.644;2023-04-05T00:53:13;102594.63;;;4.77;69.22
38630;BME280;24384;51.988;4.644;2023-04-05T00:55:39;102601.53;;;4.73;69.34
38630;BME280;24384;51.988;4.644;2023-04-05T00:58:04;102585.69;;;4.65;69.08
38630;BME280;24384;51.988;4.644;2023-04-05T01:00:30;102591.16;;;4.78;68.75
38630;BME280;24384;51.988;4.644;2023-04-05T01:02:57;102584.97;;;4.73;69.51
38630;BME280;24384;51.988;4.644;2023-04-05T01:05:48;102586.34;;;4.55;72.76
38630;BME280;24384;51.988;4.644;2023-04-05T01:08:24;102580.09;;;4.47;72.83
38630;BME280;24384;51.988;4.644;2023-04-05T01:10:56;102580.25;;;4.55;72.89
38630;BME280;24384;51.988;4.644;2023-04-05T01:13:25;102580.22;;;4.53;72.45
38630;BME280;24384;51.988;4.644;2023-04-05T01:15:53;102575.00;;;4.53;72.73
38630;BME280;24384;51.988;4.644;2023-04-05T01:18:18;102576.28;;;4.29;74.50
38630;BME280;24384;51.988;4.644;2023-04-05T01:20:48;102571.97;;;4.32;74.33
38630;BME280;24384;51.988;4.644;2023-04-05T01:23:24;102569.97;;;4.20;75.53
38630;BME280;24384;51.988;4.644;2023-04-05T01:31:31;102568.09;;;4.12;74.99
38630;BME280;24384;51.988;4.644;2023-04-05T01:34:05;102567.00;;;4.03;74.88
38630;BME280;24384;51.988;4.644;2023-04-05T01:38:58;102558.09;;;3.93;75.20
38630;BME280;24384;51.988;4.644;2023-04-05T01:41:24;102557.91;;;3.85;75.21
38630;BME280;24384;51.988;4.644;2023-04-05T01:43:50;102556.19;;;3.86;75.67
38630;BME280;24384;51.988;4.644;2023-04-05T01:46:15;102554.47;;;3.86;74.42
38630;BME280;24384;51.988;4.644;2023-04-05T01:48:40;102557.72;;;3.76;74.64
38630;BME280;24384;51.988;4.644;2023-04-05T01:51:05;102555.78;;;3.69;74.72
38630;BME280;24384;51.988;4.644;2023-04-05T01:53:31;102555.13;;;3.78;74.28
38630;BME280;24384;51.988;4.644;2023-04-05T01:55:59;102544.63;;;3.74;74.94
38630;BME280;24384;51.988;4.644;2023-04-05T01:58:25;102548.72;;;3.63;75.30
38630;BME280;24384;51.988;4.644;2023-04-05T02:00:52;102543.56;;;3.65;75.81
38630;BME280;24384;51.988;4.644;2023-04-05T02:03:17;102543.69;;;3.34;78.33
38630;BME280;24384;51.988;4.644;2023-04-05T02:05:43;102535.19;;;3.42;78.02
38630;BME280;24384;51.988;4.644;2023-04-05T02:08:08;102543.50;;;3.27;78.77
38630;BME280;24384;51.988;4.644;2023-04-05T02:10:33;102536.44;;;3.22;77.30
38630;BME280;24384;51.988;4.644;2023-04-05T02:12:58;102529.50;;;3.21;76.15
38630;BME280;24384;51.988;4.644;2023-04-05T02:15:23;102529.13;;;3.44;75.01
38630;BME280;24384;51.988;4.644;2023-04-05T02:17:49;102521.63;;;3.20;77.30
38630;BME280;24384;51.988;4.644;2023-04-05T02:20:17;102526.13;;;3.27;76.02
38630;BME280;24384;51.988;4.644;2023-04-05T02:22:43;102521.06;;;3.33;75.33
38630;BME280;24384;51.988;4.644;2023-04-05T02:25:09;102519.63;;;3.10;75.63
38630;BME280;24384;51.988;4.644;2023-04-05T02:27:35;102518.31;;;3.27;76.38
38630;BME280;24384;51.988;4.644;2023-04-05T02:30:00;102511.00;;;3.12;78.10
38630;BME280;24384;51.988;4.644;2023-04-05T02:32:25;102520.91;;;2.91;79.39
38630;BME280;24384;51.988;4.644;2023-04-05T02:34:50;102512.09;;;2.87;79.68
38630;BME280;24384;51.988;4.644;2023-04-05T02:37:19;102509.31;;;3.14;76.95
38630;BME280;24384;51.988;4.644;2023-04-05T02:39:45;102507.38;;;3.07;77.10
38630;BME280;24384;51.988;4.644;2023-04-05T02:42:10;102511.09;;;3.15;77.81
38630;BME280;24384;51.988;4.644;2023-04-05T02:44:35;102506.31;;;3.34;75.95
38630;BME280;24384;51.988;4.644;2023-04-05T02:47:01;102507.44;;;3.09;77.20
38630;BME280;24384;51.988;4.644;2023-04-05T02:49:26;102501.31;;;3.07;78.17
38630;BME280;24384;51.988;4.644;2023-04-05T02:51:51;102500.34;;;3.03;79.28
38630;BME280;24384;51.988;4.644;2023-04-05T02:54:16;102499.31;;;2.96;79.48
38630;BME280;24384;51.988;4.644;2023-04-05T02:56:41;102489.78;;;2.97;79.47
38630;BME280;24384;51.988;4.644;2023-04-05T02:59:08;102489.06;;;3.04;79.45
38630;BME280;24384;51.988;4.644;2023-04-05T03:01:33;102492.34;;;2.95;79.69
38630;BME280;24384;51.988;4.644;2023-04-05T03:04:00;102481.28;;;3.05;78.70
38630;BME280;24384;51.988;4.644;2023-04-05T03:06:25;102485.97;;;3.19;78.00
38630;BME280;24384;51.988;4.644;2023-04-05T03:08:51;102487.81;;;3.23;76.56
38630;BME280;24384;51.988;4.644;2023-04-05T03:11:17;102488.88;;;3.33;75.08
38630;BME280;24384;51.988;4.644;2023-04-05T03:13:43;102483.59;;;3.30;74.02
38630;BME280;24384;51.988;4.644;2023-04-05T03:16:08;102482.13;;;3.41;73.83
38630;BME280;24384;51.988;4.644;2023-04-05T03:18:33;102478.47;;;3.33;73.85
38630;BME280;24384;51.988;4.644;2023-04-05T03:20:58;102487.25;;;3.38;74.08
38630;BME280;24384;51.988;4.644;2023-04-05T03:23:24;102482.88;;;3.35;74.12
38630;BME280;24384;51.988;4.644;2023-04-05T03:25:52;102486.34;;;3.36;73.63
38630;BME280;24384;51.988;4.644;2023-04-05T03:28:18;102489.09;;;3.42;73.56
38630;BME280;24384;51.988;4.644;2023-04-05T03:30:43;102490.81;;;3.40;72.99
38630;BME280;24384;51.988;4.644;2023-04-05T03:33:08;102488.28;;;3.43;72.19
38630;BME280;24384;51.988;4.644;2023-04-05T03:35:33;102482.25;;;3.47;73.34
38630;BME280;24384;51.988;4.644;2023-04-05T03:37:58;102483.81;;;3.39;73.85
38630;BME280;24384;51.988;4.644;2023-04-05T03:40:23;102485.47;;;3.35;74.97
38630;BME280;24384;51.988;4.644;2023-04-05T03:42:49;102476.47;;;3.22;75.60
38630;BME280;24384;51.988;4.644;2023-04-05T03:45:14;102484.28;;;3.22;75.33
38630;BME280;24384;51.988;4.644;2023-04-05T03:47:39;102475.31;;;3.10;75.13
38630;BME280;24384;51.988;4.644;2023-04-05T03:50:05;102479.69;;;3.11;73.93
38630;BME280;24384;51.988;4.644;2023-04-05T03:52:30;102486.69;;;3.13;73.78
38630;BME280;24384;51.988;4.644;2023-04-05T03:54:55;102478.78;;;3.10;73.97
38630;BME280;24384;51.988;4.644;2023-04-05T03:57:21;102483.09;;;3.08;73.96
38630;BME280;24384;51.988;4.644;2023-04-05T03:59:46;102483.66;;;2.96;74.24
38630;BME280;24384;51.988;4.644;2023-04-05T04:02:11;102476.63;;;2.92;73.48
38630;BME280;24384;51.988;4.644;2023-04-05T04:04:36;102491.28;;;2.89;73.44
38630;BME280;24384;51.988;4.644;2023-04-05T04:07:02;102475.16;;;3.03;73.58
38630;BME280;24384;51.988;4.644;2023-04-05T04:09:28;102474.13;;;2.97;73.11
38630;BME280;24384;51.988;4.644;2023-04-05T04:11:54;102476.63;;;2.92;72.97
38630;BME280;24384;51.988;4.644;2023-04-05T04:14:20;102474.00;;;2.91;73.14
38630;BME280;24384;51.988;4.644;2023-04-05T04:16:45;102465.00;;;2.79;73.59
38630;BME280;24384;51.988;4.644;2023-04-05T04:19:11;102471.28;;;2.86;73.20
38630;BME280;24384;51.988;4.644;2023-04-05T04:21:36;102466.13;;;2.89;73.12
38630;BME280;24384;51.988;4.644;2023-04-05T04:24:03;102472.38;;;2.96;72.33
38630;BME280;24384;51.988;4.644;2023-04-05T04:26:29;102477.19;;;2.80;73.08
38630;BME280;24384;51.988;4.644;2023-04-05T04:28:54;102461.75;;;2.88;72.93
38630;BME280;24384;51.988;4.644;2023-04-05T04:31:19;102468.78;;;2.91;73.08
38630;BME280;24384;51.988;4.644;2023-04-05T04:33:50;102467.13;;;2.94;71.85
38630;BME280;24384;51.988;4.644;2023-04-05T04:36:16;102465.22;;;2.89;73.05
38630;BME280;24384;51.988;4.644;2023-04-05T04:38:42;102470.38;;;2.85;73.61
38630;BME280;24384;51.988;4.644;2023-04-05T04:41:12;102468.41;;;2.75;73.56
38630;BME280;24384;51.988;4.644;2023-04-05T04:43:37;102466.53;;;2.71;74.45
38630;BME280;24384;51.988;4.644;2023-04-05T04:46:08;102475.78;;;2.58;74.76
38630;BME280;24384;51.988;4.644;2023-04-05T04:48:35;102465.44;;;2.61;74.91
38630;BME280;24384;51.988;4.644;2023-04-05T04:51:02;102465.94;;;2.48;75.37
38630;BME280;24384;51.988;4.644;2023-04-05T04:53:27;102462.34;;;2.43;75.29
38630;BME280;24384;51.988;4.644;2023-04-05T04:55:53;102462.63;;;2.54;74.95
38630;BME280;24384;51.988;4.644;2023-04-05T04:58:19;102466.31;;;2.62;74.39
38630;BME280;24384;51.988;4.644;2023-04-05T05:00:44;102462.72;;;2.57;75.32
38630;BME280;24384;51.988;4.644;2023-04-05T05:03:10;102466.38;;;2.65;74.63
38630;BME280;24384;51.988;4.644;2023-04-05T05:05:42;102462.19;;;2.37;75.51
38630;BME280;24384;51.988;4.644;2023-04-05T05:08:08;102464.13;;;2.45;75.78
38630;BME280;24384;51.988;4.644;2023-04-05T05:10:33;102465.13;;;2.49;75.18
38630;BME280;24384;51.988;4.644;2023-04-05T05:12:58;102460.78;;;2.49;75.63
38630;BME280;24384;51.988;4.644;2023-04-05T05:15:24;102457.03;;;2.38;76.69
38630;BME280;24384;51.988;4.644;2023-04-05T05:17:49;102467.28;;;2.32;76.89
38630;BME280;24384;51.988;4.644;2023-04-05T05:20:17;102473.38;;;2.34;76.36
38630;BME280;24384;51.988;4.644;2023-04-05T05:22:42;102479.59;;;2.39;76.93
38630;BME280;24384;51.988;4.644;2023-04-05T05:25:07;102473.63;;;2.43;76.23
38630;BME280;24384;51.988;4.644;2023-04-05T05:27:33;102475.41;;;2.44;76.37
38630;BME280;24384;51.988;4.644;2023-04-05T05:29:59;102473.22;;;2.60;76.02
38630;BME280;24384;51.988;4.644;2023-04-05T05:32:25;102470.84;;;2.69;75.36
38630;BME280;24384;51.988;4.644;2023-04-05T05:34:50;102473.53;;;2.72;75.30
38630;BME280;24384;51.988;4.644;2023-04-05T05:37:15;102484.22;;;2.83;75.36
38630;BME280;24384;51.988;4.644;2023-04-05T05:39:41;102479.81;;;2.80;75.19
38630;BME280;24384;51.988;4.644;2023-04-05T05:42:06;102474.09;;;2.95;74.57
38630;BME280;24384;51.988;4.644;2023-04-05T05:44:31;102477.38;;;2.88;75.96
38630;BME280;24384;51.988;4.644;2023-04-05T05:46:56;102482.31;;;3.11;74.24
38630;BME280;24384;51.988;4.644;2023-04-05T05:49:22;102478.81;;;3.12;75.04
38630;BME280;24384;51.988;4.644;2023-04-05T05:51:48;102477.00;;;3.08;74.15
38630;BME280;24384;51.988;4.644;2023-04-05T05:54:13;102475.72;;;3.27;75.05
38630;BME280;24384;51.988;4.644;2023-04-05T05:56:38;102481.34;;;3.45;75.06
38630;BME280;24384;51.988;4.644;2023-04-05T05:59:03;102480.66;;;3.52;74.87
38630;BME280;24384;51.988;4.644;2023-04-05T06:01:28;102478.94;;;3.54;74.74
38630;BME280;24384;51.988;4.644;2023-04-05T06:03:54;102474.78;;;3.63;73.86
38630;BME280;24384;51.988;4.644;2023-04-05T06:06:19;102471.28;;;3.62;72.72
38630;BME280;24384;51.988;4.644;2023-04-05T06:08:45;102470.50;;;3.65;72.80
38630;BME280;24384;51.988;4.644;2023-04-05T06:11:18;102472.38;;;3.73;71.11
38630;BME280;24384;51.988;4.644;2023-04-05T06:13:44;102480.44;;;3.84;70.46
38630;BME280;24384;51.988;4.644;2023-04-05T06:16:09;102480.72;;;3.98;69.96
38630;BME280;24384;51.988;4.644;2023-04-05T06:18:34;102478.31;;;4.07;69.18
38630;BME280;24384;51.988;4.644;2023-04-05T06:21:00;102482.06;;;4.20;68.79
38630;BME280;24384;51.988;4.644;2023-04-05T06:23:26;102484.69;;;4.20;68.26
38630;BME280;24384;51.988;4.644;2023-04-05T06:25:51;102482.44;;;4.40;68.42
38630;BME280;24384;51.988;4.644;2023-04-05T06:28:17;102483.69;;;4.61;68.56
38630;BME280;24384;51.988;4.644;2023-04-05T06:30:42;102479.28;;;4.58;68.99
38630;BME280;24384;51.988;4.644;2023-04-05T06:33:07;102487.47;;;4.78;68.95
38630;BME280;24384;51.988;4.644;2023-04-05T06:35:32;102481.06;;;4.61;68.38
38630;BME280;24384;51.988;4.644;2023-04-05T06:37:57;102475.28;;;4.77;67.26
38630;BME280;24384;51.988;4.644;2023-04-05T06:40:22;102487.53;;;4.81;67.27
38630;BME280;24384;51.988;4.644;2023-04-05T06:42:48;102480.97;;;5.05;67.04
38630;BME280;24384;51.988;4.644;2023-04-05T06:45:13;102474.94;;;5.11;67.77
38630;BME280;24384;51.988;4.644;2023-04-05T06:47:38;102481.16;;;5.17;68.45
38630;BME280;24384;51.988;4.644;2023-04-05T06:50:05;102471.13;;;5.50;67.07
38630;BME280;24384;51.988;4.644;2023-04-05T06:52:31;102475.66;;;5.62;67.20
38630;BME280;24384;51.988;4.644;2023-04-05T06:54:56;102469.47;;;5.53;67.02
38630;BME280;24384;51.988;4.644;2023-04-05T06:57:21;102462.53;;;5.57;67.89
38630;BME280;24384;51.988;4.644;2023-04-05T06:59:46;102468.97;;;5.84;66.59
38630;BME280;24384;51.988;4.644;2023-04-05T07:02:11;102465.41;;;5.77;67.32
38630;BME280;24384;51.988;4.644;2023-04-05T07:04:37;102476.00;;;5.88;67.12
38630;BME280;24384;51.988;4.644;2023-04-05T07:07:03;102470.25;;;6.12;65.52
38630;BME280;24384;51.988;4.644;2023-04-05T07:09:29;102467.56;;;6.07;65.08
38630;BME280;24384;51.988;4.644;2023-04-05T07:11:56;102462.00;;;5.83;64.15
38630;BME280;24384;51.988;4.644;2023-04-05T07:14:21;102464.97;;;6.11;64.95
38630;BME280;24384;51.988;4.644;2023-04-05T07:16:47;102454.94;;;5.79;64.49
38630;BME280;24384;51.988;4.644;2023-04-05T07:19:12;102463.88;;;5.95;64.66
38630;BME280;24384;51.988;4.644;2023-04-05T07:21:37;102451.88;;;6.11;65.18
38630;BME280;24384;51.988;4.644;2023-04-05T07:24:02;102455.47;;;6.19;65.04
38630;BME280;24384;51.988;4.644;2023-04-05T07:26:28;102453.69;;;6.18;64.52
38630;BME280;24384;51.988;4.644;2023-04-05T07:28:53;102452.84;;;6.19;64.50
38630;BME280;24384;51.988;4.644;2023-04-05T07:31:18;102450.41;;;6.37;63.22
38630;BME280;24384;51.988;4.644;2023-04-05T07:33:43;102455.41;;;6.16;64.97
38630;BME280;24384;51.988;4.644;2023-04-05T07:36:08;102454.09;;;6.58;63.05
38630;BME280;24384;51.988;4.644;2023-04-05T07:38:33;102455.66;;;6.37;61.59
38630;BME280;24384;51.988;4.644;2023-04-05T07:40:59;102448.88;;;6.59;61.94
38630;BME280;24384;51.988;4.644;2023-04-05T07:43:24;102453.34;;;6.71;63.62
38630;BME280;24384;51.988;4.644;2023-04-05T07:45:49;102452.84;;;7.15;61.33
38630;BME280;24384;51.988;4.644;2023-04-05T07:48:17;102459.69;;;6.99;61.83
38630;BME280;24384;51.988;4.644;2023-04-05T07:50:42;102453.66;;;7.11;59.41
38630;BME280;24384;51.988;4.644;2023-04-05T07:53:11;102450.88;;;6.90;61.63
38630;BME280;24384;51.988;4.644;2023-04-05T07:55:36;102447.72;;;7.34;60.15
38630;BME280;24384;51.988;4.644;2023-04-05T07:58:02;102449.56;;;7.55;60.56
38630;BME280;24384;51.988;4.644;2023-04-05T08:00:27;102442.66;;;7.74;61.85
38630;BME280;24384;51.988;4.644;2023-04-05T08:02:52;102439.19;;;7.87;60.10
38630;BME280;24384;51.988;4.644;2023-04-05T08:05:17;102436.66;;;8.20;59.62
38630;BME280;24384;51.988;4.644;2023-04-05T08:07:42;102445.41;;;8.05;59.81
38630;BME280;24384;51.988;4.644;2023-04-05T08:10:07;102446.34;;;8.29;56.13
38630;BME280;24384;51.988;4.644;2023-04-05T08:12:33;102433.94;;;7.91;56.41
38630;BME280;24384;51.988;4.644;2023-04-05T08:14:58;102435.84;;;8.36;55.65
38630;BME280;24384;51.988;4.644;2023-04-05T08:17:23;102445.44;;;8.16;51.46
38630;BME280;24384;51.988;4.644;2023-04-05T08:19:51;102437.56;;;8.22;52.50
38630;BME280;24384;51.988;4.644;2023-04-05T08:22:17;102433.25;;;8.46;52.34
38630;BME280;24384;51.988;4.644;2023-04-05T08:24:42;102435.81;;;8.33;57.78
38630;BME280;24384;51.988;4.644;2023-04-05T08:27:08;102428.00;;;8.52;55.79
38630;BME280;24384;51.988;4.644;2023-04-05T08:29:33;102438.53;;;8.76;53.07
38630;BME280;24384;51.988;4.644;2023-04-05T08:31:58;102429.78;;;8.81;52.54
38630;BME280;24384;51.988;4.644;2023-04-05T08:34:23;102426.19;;;9.25;51.79
38630;BME280;24384;51.988;4.644;2023-04-05T08:36:49;102427.03;;;9.41;51.26
38630;BME280;24384;51.988;4.644;2023-04-05T08:39:14;102429.66;;;9.53;48.07
38630;BME280;24384;51.988;4.644;2023-04-05T08:41:40;102423.38;;;9.80;49.17
38630;BME280;24384;51.988;4.644;2023-04-05T08:44:05;102420.69;;;9.86;48.27
38630;BME280;24384;51.988;4.644;2023-04-05T08:46:33;102420.78;;;9.68;46.43
38630;BME280;24384;51.988;4.644;2023-04-05T08:48:59;102419.09;;;9.58;45.20
38630;BME280;24384;51.988;4.644;2023-04-05T08:51:28;102413.72;;;9.84;45.93
38630;BME280;24384;51.988;4.644;2023-04-05T08:53:53;102419.59;;;10.35;45.67
38630;BME280;24384;51.988;4.644;2023-04-05T08:56:39;102415.00;;;10.61;45.41
38630;BME280;24384;51.988;4.644;2023-04-05T08:59:08;102411.34;;;10.77;46.95
38630;BME280;24384;51.988;4.644;2023-04-05T09:01:38;102413.75;;;11.03;43.94
38630;BME280;24384;51.988;4.644;2023-04-05T09:04:06;102409.13;;;11.24;45.18
38630;BME280;24384;51.988;4.644;2023-04-05T09:06:34;102415.94;;;11.45;44.06
38630;BME280;24384;51.988;4.644;2023-04-05T09:09:02;102414.84;;;10.79;38.15
38630;BME280;24384;51.988;4.644;2023-04-05T09:11:29;102409.09;;;11.25;38.23
38630;BME280;24384;51.988;4.644;2023-04-05T09:13:55;102410.31;;;11.73;38.58
38630;BME280;24384;51.988;4.644;2023-04-05T09:16:20;102414.25;;;11.38;41.46
38630;BME280;24384;51.988;4.644;2023-04-05T09:18:45;102412.34;;;11.49;39.74
38630;BME280;24384;51.988;4.644;2023-04-05T09:21:10;102414.66;;;10.98;38.65
38630;BME280;24384;51.988;4.644;2023-04-05T09:23:36;102414.47;;;11.94;41.04
38630;BME280;24384;51.988;4.644;2023-04-05T09:26:20;102409.94;;;12.04;37.62
38630;BME280;24384;51.988;4.644;2023-04-05T09:28:46;102408.88;;;11.45;38.74
38630;BME280;24384;51.988;4.644;2023-04-05T09:34:02;102406.75;;;11.75;36.56
38630;BME280;24384;51.988;4.644;2023-04-05T09:36:27;102410.25;;;12.41;39.07
38630;BME280;24384;51.988;4.644;2023-04-05T09:38:53;102411.41;;;12.79;34.93
38630;BME280;24384;51.988;4.644;2023-04-05T09:41:27;102403.09;;;12.46;36.63
38630;BME280;24384;51.988;4.644;2023-04-05T09:43:52;102402.69;;;12.71;37.10
38630;BME280;24384;51.988;4.644;2023-04-05T09:46:28;102401.72;;;12.77;35.03
38630;BME280;24384;51.988;4.644;2023-04-05T09:48:54;102392.00;;;13.25;35.98
38630;BME280;24384;51.988;4.644;2023-04-05T09:51:20;102405.75;;;12.99;33.30
38630;BME280;24384;51.988;4.644;2023-04-05T09:53:55;102401.97;;;13.11;32.94
38630;BME280;24384;51.988;4.644;2023-04-05T09:56:20;102385.13;;;13.60;30.58
38630;BME280;24384;51.988;4.644;2023-04-05T09:58:47;102385.91;;;13.67;33.20
38630;BME280;24384;51.988;4.644;2023-04-05T10:01:14;102383.41;;;13.59;32.32
38630;BME280;24384;51.988;4.644;2023-04-05T10:03:46;102382.03;;;13.82;33.80
38630;BME280;24384;51.988;4.644;2023-04-05T10:06:12;102379.84;;;13.60;32.46
38630;BME280;24384;51.988;4.644;2023-04-05T10:08:38;102379.31;;;13.85;32.40
38630;BME280;24384;51.988;4.644;2023-04-05T10:11:03;102371.31;;;14.26;31.00
38630;BME280;24384;51.988;4.644;2023-04-05T10:13:30;102378.34;;;13.89;32.54
38630;BME280;24384;51.988;4.644;2023-04-05T10:15:55;102372.53;;;13.72;31.29
38630;BME280;24384;51.988;4.644;2023-04-05T10:18:25;102373.56;;;14.04;31.50
38630;BME280;24384;51.988;4.644;2023-04-05T10:20:53;102362.56;;;14.21;32.31
38630;BME280;24384;51.988;4.644;2023-04-05T10:23:30;102370.97;;;13.61;29.42
38630;BME280;24384;51.988;4.644;2023-04-05T10:28:46;102376.75;;;12.92;33.41
38630;BME280;24384;51.988;4.644;2023-04-05T10:33:42;102384.38;;;12.59;33.39
38630;BME280;24384;51.988;4.644;2023-04-05T10:39:20;102373.34;;;13.32;30.62
38630;BME280;24384;51.988;4.644;2023-04-05T10:41:26;102359.53;;;13.61;29.62
38630;BME280;24384;51.988;4.644;2023-04-05T10:43:54;102363.75;;;14.09;31.49
38630;BME280;24384;51.988;4.644;2023-04-05T10:46:20;102359.81;;;14.25;29.61
38630;BME280;24384;51.988;4.644;2023-04-05T10:48:53;102363.34;;;14.26;31.13
38630;BME280;24384;51.988;4.644;2023-04-05T10:51:24;102359.91;;;14.21;32.60
38630;BME280;24384;51.988;4.644;2023-04-05T10:53:50;102350.22;;;14.90;29.55
38630;BME280;24384;51.988;4.644;2023-04-05T10:56:16;102340.66;;;15.16;26.85
38630;BME280;24384;51.988;4.644;2023-04-05T10:58:42;102343.66;;;15.65;28.83
38630;BME280;24384;51.988;4.644;2023-04-05T11:01:08;102345.97;;;14.84;31.53
38630;BME280;24384;51.988;4.644;2023-04-05T11:06:22;102339.28;;;14.33;29.00
38630;BME280;24384;51.988;4.644;2023-04-05T11:08:48;102334.63;;;15.40;29.88
38630;BME280;24384;51.988;4.644;2023-04-05T11:11:14;102327.44;;;16.02;30.47
38630;BME280;24384;51.988;4.644;2023-04-05T11:13:46;102329.56;;;15.91;26.94
38630;BME280;24384;51.988;4.644;2023-04-05T11:16:12;102321.66;;;16.68;27.82
38630;BME280;24384;51.988;4.644;2023-04-05T11:18:41;102320.84;;;16.66;28.87
38630;BME280;24384;51.988;4.644;2023-04-05T11:21:08;102317.72;;;17.52;27.48
38630;BME280;24384;51.988;4.644;2023-04-05T11:23:35;102311.09;;;17.39;28.30
38630;BME280;24384;51.988;4.644;2023-04-05T11:26:18;102317.28;;;15.87;28.58
38630;BME280;24384;51.988;4.644;2023-04-05T11:28:43;102325.59;;;16.04;31.78
38630;BME280;24384;51.988;4.644;2023-04-05T11:31:15;102320.38;;;16.01;28.58
38630;BME280;24384;51.988;4.644;2023-04-05T11:36:28;102308.41;;;16.67;27.44
38630;BME280;24384;51.988;4.644;2023-04-05T11:39:21;102306.53;;;17.19;28.21
38630;BME280;24384;51.988;4.644;2023-04-05T11:41:38;102307.75;;;16.60;32.52
38630;BME280;24384;51.988;4.644;2023-04-05T11:44:03;102303.63;;;16.76;32.36
38630;BME280;24384;51.988;4.644;2023-04-05T11:46:32;102296.28;;;17.32;31.44
38630;BME280;24384;51.988;4.644;2023-04-05T11:48:57;102292.31;;;17.42;28.92
38630;BME280;24384;51.988;4.644;2023-04-05T11:51:22;102295.88;;;17.43;26.88
38630;BME280;24384;51.988;4.644;2023-04-05T11:53:49;102291.63;;;18.05;26.37
38630;BME280;24384;51.988;4.644;2023-04-05T11:56:14;102289.69;;;17.18;27.99
38630;BME280;24384;51.988;4.644;2023-04-05T11:58:40;102283.19;;;17.26;26.83
38630;BME280;24384;51.988;4.644;2023-04-05T12:01:06;102279.34;;;18.01;31.78
38630;BME280;24384;51.988;4.644;2023-04-05T12:03:31;102274.56;;;18.71;25.69
38630;BME280;24384;51.988;4.644;2023-04-05T12:05:58;102276.81;;;19.20;29.00
38630;BME280;24384;51.988;4.644;2023-04-05T12:08:36;102270.91;;;19.32;24.52
38630;BME280;24384;51.988;4.644;2023-04-05T12:11:02;102275.75;;;19.43;25.35
38630;BME280;24384;51.988;4.644;2023-04-05T12:13:27;102265.84;;;19.26;26.33
38630;BME280;24384;51.988;4.644;2023-04-05T12:15:59;102269.53;;;18.01;26.86
38630;BME280;24384;51.988;4.644;2023-04-05T12:18:25;102263.75;;;18.12;28.01
38630;BME280;24384;51.988;4.644;2023-04-05T12:20:51;102264.81;;;18.29;24.97
38630;BME280;24384;51.988;4.644;2023-04-05T12:23:17;102259.16;;;19.54;30.68
38630;BME280;24384;51.988;4.644;2023-04-05T12:25:45;102253.84;;;20.78;26.37
38630;BME280;24384;51.988;4.644;2023-04-05T12:28:10;102246.56;;;20.80;23.05
38630;BME280;24384;51.988;4.644;2023-04-05T12:30:47;102250.69;;;21.19;24.75
38630;BME280;24384;51.988;4.644;2023-04-05T12:33:12;102244.16;;;22.47;23.08
38630;BME280;24384;51.988;4.644;2023-04-05T12:35:37;102247.75;;;21.23;26.02
38630;BME280;24384;51.988;4.644;2023-04-05T12:38:04;102248.59;;;20.06;23.35
38630;BME280;24384;51.988;4.644;2023-04-05T12:40:30;102240.59;;;20.74;22.20
38630;BME280;24384;51.988;4.644;2023-04-05T12:43:00;102241.81;;;20.34;27.24
38630;BME280;24384;51.988;4.644;2023-04-05T12:45:26;102237.47;;;21.63;25.39
38630;BME280;24384;51.988;4.644;2023-04-05T12:47:58;102234.81;;;21.94;23.34
38630;BME280;24384;51.988;4.644;2023-04-05T12:50:24;102234.09;;;23.50;21.09
38630;BME280;24384;51.988;4.644;2023-04-05T12:53:00;102234.16;;;23.07;20.51
38630;BME280;24384;51.988;4.644;2023-04-05T12:55:26;102228.13;;;23.03;18.36
38630;BME280;24384;51.988;4.644;2023-04-05T12:57:52;102225.41;;;23.59;24.51
38630;BME280;24384;51.988;4.644;2023-04-05T13:00:18;102210.06;;;24.79;17.81
38630;BME280;24384;51.988;4.644;2023-04-05T13:02:48;102213.59;;;24.28;21.20
38630;BME280;24384;51.988;4.644;2023-04-05T13:05:16;102204.34;;;25.20;23.57
38630;BME280;24384;51.988;4.644;2023-04-05T13:07:42;102193.34;;;25.48;22.72
38630;BME280;24384;51.988;4.644;2023-04-05T13:10:07;102200.81;;;24.31;18.30
38630;BME280;24384;51.988;4.644;2023-04-05T13:12:32;102204.19;;;25.59;22.60
38630;BME280;24384;51.988;4.644;2023-04-05T13:14:58;102207.63;;;23.57;18.90
38630;BME280;24384;51.988;4.644;2023-04-05T13:17:23;102201.38;;;23.56;24.38
38630;BME280;24384;51.988;4.644;2023-04-05T13:19:48;102197.66;;;23.72;20.46